sensor_id;sensor_type;location;lat;lon;timestamp;P1;durP1;ratioP1;P2;durP2;ratioP2
5149;SDS011;2593;52.466;13.436;2023-02-03T00:00:23;4.67;;;2.30;;
5149;SDS011;2593;52.466;13.436;2023-02-03T00:02:52;12.40;;;4.10;;
5149;SDS011;2593;52.466;13.436;2023-02-03T00:05:18;11.13;;;3.30;;
5149;SDS011;2593;52.466;13.436;2023-02-03T00:07:44;7.30;;;3.83;;
5149;SDS011;2593;52.466;13.436;2023-02-03T00:10:10;9.63;;;3.90;;
5149;SDS011;2593;52.466;13.436;2023-02-03T00:12:36;11.73;;;3.50;;
5149;SDS011;2593;52.466;13.436;2023-02-03T00:15:02;8.20;;;3.90;;
5149;SDS011;2593;52.466;13.436;2023-02-03T00:17:28;8.23;;;4.10;;
5149;SDS011;2593;52.466;13.436;2023-02-03T00:19:54;5.13;;;3.33;;
5149;SDS011;2593;52.466;13.436;2023-02-03T00:22:19;12.90;;;4.20;;
5149;SDS011;2593;52.466;13.436;2023-02-03T00:24:45;11.87;;;3.83;;
5149;SDS011;2593;52.466;13.436;2023-02-03T00:27:10;13.10;;;3.77;;
5149;SDS011;2593;52.466;13.436;2023-02-03T00:29:36;12.10;;;4.13;;
5149;SDS011;2593;52.466;13.436;2023-02-03T00:32:02;7.47;;;3.30;;
5149;SDS011;2593;52.466;13.436;2023-02-03T00:34:28;6.90;;;3.37;;
5149;SDS011;2593;52.466;13.436;2023-02-03T00:36:54;22.93;;;4.80;;
5149;SDS011;2593;52.466;13.436;2023-02-03T00:39:20;16.67;;;4.17;;
5149;SDS011;2593;52.466;13.436;2023-02-03T00:41:46;7.40;;;3.37;;
5149;SDS011;2593;52.466;13.436;2023-02-03T00:44:12;7.27;;;2.80;;
5149;SDS011;2593;52.466;13.436;2023-02-03T00:46:38;8.13;;;3.30;;
5149;SDS011;2593;52.466;13.436;2023-02-03T00:49:04;24.07;;;3.90;;
5149;SDS011;2593;52.466;13.436;2023-02-03T00:51:30;6.60;;;3.77;;
5149;SDS011;2593;52.466;13.436;2023-02-03T00:53:57;11.20;;;4.50;;
5149;SDS011;2593;52.466;13.436;2023-02-03T00:56:23;10.30;;;4.50;;
5149;SDS011;2593;52.466;13.436;2023-02-03T00:58:48;12.33;;;4.77;;
5149;SDS011;2593;52.466;13.436;2023-02-03T01:01:14;19.83;;;4.67;;
5149;SDS011;2593;52.466;13.436;2023-02-03T01:03:39;17.87;;;4.70;;
5149;SDS011;2593;52.466;13.436;2023-02-03T01:06:16;13.80;;;4.77;;
5149;SDS011;2593;52.466;13.436;2023-02-03T01:08:43;9.57;;;4.43;;
5149;SDS011;2593;52.466;13.436;2023-02-03T01:11:11;18.67;;;7.00;;
5149;SDS011;2593;52.466;13.436;2023-02-03T01:13:38;13.97;;;6.13;;
5149;SDS011;2593;52.466;13.436;2023-02-03T01:16:15;9.43;;;4.97;;
5149;SDS011;2593;52.466;13.436;2023-02-03T01:18:42;17.33;;;4.90;;
5149;SDS011;2593;52.466;13.436;2023-02-03T01:21:10;13.53;;;4.67;;
5149;SDS011;2593;52.466;13.436;2023-02-03T01:23:37;10.30;;;5.07;;
5149;SDS011;2593;52.466;13.436;2023-02-03T01:26:04;21.50;;;7.10;;
5149;SDS011;2593;52.466;13.436;2023-02-03T01:28:31;15.37;;;5.57;;
5149;SDS011;2593;52.466;13.436;2023-02-03T01:31:00;18.33;;;5.23;;
5149;SDS011;2593;52.466;13.436;2023-02-03T01:33:36;15.97;;;5.90;;
5149;SDS011;2593;52.466;13.436;2023-02-03T01:36:04;16.70;;;5.17;;
5149;SDS011;2593;52.466;13.436;2023-02-03T01:38:31;15.03;;;5.83;;
5149;SDS011;2593;52.466;13.436;2023-02-03T01:40:57;7.53;;;5.23;;
5149;SDS011;2593;52.466;13.436;2023-02-03T01:43:30;17.43;;;6.20;;
5149;SDS011;2593;52.466;13.436;2023-02-03T01:46:01;18.43;;;7.33;;
5149;SDS011;2593;52.466;13.436;2023-02-03T01:48:30;21.93;;;5.90;;
5149;SDS011;2593;52.466;13.436;2023-02-03T01:50:59;17.43;;;6.10;;
5149;SDS011;2593;52.466;13.436;2023-02-03T01:53:26;13.20;;;6.40;;
5149;SDS011;2593;52.466;13.436;2023-02-03T01:55:52;19.57;;;5.90;;
5149;SDS011;2593;52.466;13.436;2023-02-03T01:58:24;10.20;;;6.47;;
5149;SDS011;2593;52.466;13.436;2023-02-03T02:00:53;15.70;;;6.30;;
5149;SDS011;2593;52.466;13.436;2023-02-03T02:03:22;11.93;;;5.90;;
5149;SDS011;2593;52.466;13.436;2023-02-03T02:08:47;20.10;;;6.33;;
5149;SDS011;2593;52.466;13.436;2023-02-03T02:11:16;13.33;;;5.50;;
5149;SDS011;2593;52.466;13.436;2023-02-03T02:13:44;13.33;;;5.90;;
5149;SDS011;2593;52.466;13.436;2023-02-03T02:22:22;11.37;;;6.10;;
5149;SDS011;2593;52.466;13.436;2023-02-03T02:39:01;5.63;;;4.80;;
5149;SDS011;2593;52.466;13.436;2023-02-03T02:44:38;5.80;;;4.80;;
5149;SDS011;2593;52.466;13.436;2023-02-03T02:47:41;8.47;;;4.70;;
5149;SDS011;2593;52.466;13.436;2023-02-03T02:50:02;8.90;;;4.80;;
5149;SDS011;2593;52.466;13.436;2023-02-03T02:52:33;6.10;;;3.77;;
5149;SDS011;2593;52.466;13.436;2023-02-03T02:55:15;3.77;;;3.43;;
5149;SDS011;2593;52.466;13.436;2023-02-03T02:57:48;5.33;;;3.63;;
5149;SDS011;2593;52.466;13.436;2023-02-03T03:00:17;5.60;;;3.73;;
5149;SDS011;2593;52.466;13.436;2023-02-03T03:02:43;10.97;;;3.17;;
5149;SDS011;2593;52.466;13.436;2023-02-03T03:05:09;7.67;;;3.27;;
5149;SDS011;2593;52.466;13.436;2023-02-03T03:08:09;5.83;;;3.40;;
5149;SDS011;2593;52.466;13.436;2023-02-03T03:10:29;4.60;;;3.17;;
5149;SDS011;2593;52.466;13.436;2023-02-03T03:12:58;4.83;;;3.20;;
5149;SDS011;2593;52.466;13.436;2023-02-03T03:15:29;5.43;;;3.03;;
5149;SDS011;2593;52.466;13.436;2023-02-03T03:17:58;5.07;;;3.20;;
5149;SDS011;2593;52.466;13.436;2023-02-03T03:20:28;6.77;;;3.40;;
5149;SDS011;2593;52.466;13.436;2023-02-03T03:23:04;4.77;;;2.20;;
5149;SDS011;2593;52.466;13.436;2023-02-03T03:25:42;2.43;;;2.33;;
5149;SDS011;2593;52.466;13.436;2023-02-03T03:28:12;2.83;;;2.63;;
5149;SDS011;2593;52.466;13.436;2023-02-03T03:30:43;2.27;;;2.00;;
5149;SDS011;2593;52.466;13.436;2023-02-03T03:33:08;2.50;;;2.40;;
5149;SDS011;2593;52.466;13.436;2023-02-03T03:35:36;2.80;;;2.00;;
5149;SDS011;2593;52.466;13.436;2023-02-03T03:38:14;3.60;;;2.10;;
5149;SDS011;2593;52.466;13.436;2023-02-03T03:41:18;2.23;;;1.97;;
5149;SDS011;2593;52.466;13.436;2023-02-03T03:43:45;2.13;;;2.03;;
5149;SDS011;2593;52.466;13.436;2023-02-03T03:46:13;2.20;;;2.10;;
5149;SDS011;2593;52.466;13.436;2023-02-03T03:48:51;2.77;;;2.57;;
5149;SDS011;2593;52.466;13.436;2023-02-03T03:51:34;4.40;;;2.00;;
5149;SDS011;2593;52.466;13.436;2023-02-03T03:54:09;2.40;;;2.20;;
5149;SDS011;2593;52.466;13.436;2023-02-03T03:56:40;2.07;;;1.97;;
5149;SDS011;2593;52.466;13.436;2023-02-03T03:59:22;5.43;;;2.20;;
5149;SDS011;2593;52.466;13.436;2023-02-03T04:01:51;2.37;;;2.10;;
5149;SDS011;2593;52.466;13.436;2023-02-03T04:04:17;1.90;;;1.80;;
5149;SDS011;2593;52.466;13.436;2023-02-03T04:06:44;1.83;;;1.70;;
5149;SDS011;2593;52.466;13.436;2023-02-03T04:09:10;2.60;;;2.50;;
5149;SDS011;2593;52.466;13.436;2023-02-03T04:11:36;4.10;;;3.27;;
5149;SDS011;2593;52.466;13.436;2023-02-03T04:14:20;6.63;;;4.20;;
5149;SDS011;2593;52.466;13.436;2023-02-03T04:16:45;4.47;;;3.87;;
5149;SDS011;2593;52.466;13.436;2023-02-03T04:19:11;3.70;;;3.40;;
5149;SDS011;2593;52.466;13.436;2023-02-03T04:21:37;4.83;;;4.33;;
5149;SDS011;2593;52.466;13.436;2023-02-03T04:24:02;5.13;;;3.87;;
5149;SDS011;2593;52.466;13.436;2023-02-03T04:26:28;5.27;;;4.70;;
5149;SDS011;2593;52.466;13.436;2023-02-03T04:28:54;5.63;;;4.33;;
5149;SDS011;2593;52.466;13.436;2023-02-03T04:31:19;4.60;;;4.27;;
5149;SDS011;2593;52.466;13.436;2023-02-03T04:33:45;10.60;;;4.43;;
5149;SDS011;2593;52.466;13.436;2023-02-03T04:36:10;4.60;;;4.20;;
5149;SDS011;2593;52.466;13.436;2023-02-03T04:38:36;8.63;;;5.33;;
5149;SDS011;2593;52.466;13.436;2023-02-03T04:41:02;9.90;;;6.97;;
5149;SDS011;2593;52.466;13.436;2023-02-03T04:43:27;7.27;;;6.10;;
5149;SDS011;2593;52.466;13.436;2023-02-03T04:45:53;8.27;;;5.50;;
5149;SDS011;2593;52.466;13.436;2023-02-03T04:48:19;5.10;;;4.60;;
5149;SDS011;2593;52.466;13.436;2023-02-03T04:50:44;6.30;;;5.70;;
5149;SDS011;2593;52.466;13.436;2023-02-03T04:53:10;7.30;;;5.17;;
5149;SDS011;2593;52.466;13.436;2023-02-03T04:55:36;5.87;;;5.13;;
5149;SDS011;2593;52.466;13.436;2023-02-03T04:58:01;6.43;;;5.83;;
5149;SDS011;2593;52.466;13.436;2023-02-03T05:00:27;10.60;;;7.57;;
5149;SDS011;2593;52.466;13.436;2023-02-03T05:02:53;10.90;;;7.30;;
5149;SDS011;2593;52.466;13.436;2023-02-03T05:05:19;12.77;;;8.03;;
5149;SDS011;2593;52.466;13.436;2023-02-03T05:07:45;12.00;;;8.03;;
5149;SDS011;2593;52.466;13.436;2023-02-03T05:10:11;15.87;;;8.47;;
5149;SDS011;2593;52.466;13.436;2023-02-03T05:12:37;16.40;;;10.27;;
5149;SDS011;2593;52.466;13.436;2023-02-03T05:15:03;13.83;;;9.43;;
5149;SDS011;2593;52.466;13.436;2023-02-03T05:17:29;12.53;;;8.77;;
5149;SDS011;2593;52.466;13.436;2023-02-03T05:19:54;12.30;;;9.13;;
5149;SDS011;2593;52.466;13.436;2023-02-03T05:22:20;18.57;;;11.20;;
5149;SDS011;2593;52.466;13.436;2023-02-03T05:24:45;21.20;;;11.27;;
5149;SDS011;2593;52.466;13.436;2023-02-03T05:27:11;21.50;;;11.30;;
5149;SDS011;2593;52.466;13.436;2023-02-03T05:29:37;19.80;;;11.50;;
5149;SDS011;2593;52.466;13.436;2023-02-03T05:32:02;17.57;;;11.17;;
5149;SDS011;2593;52.466;13.436;2023-02-03T05:34:28;27.10;;;13.57;;
5149;SDS011;2593;52.466;13.436;2023-02-03T05:36:54;22.27;;;13.80;;
5149;SDS011;2593;52.466;13.436;2023-02-03T05:39:19;28.80;;;15.77;;
5149;SDS011;2593;52.466;13.436;2023-02-03T05:41:45;27.50;;;15.90;;
5149;SDS011;2593;52.466;13.436;2023-02-03T05:44:17;28.13;;;14.80;;
5149;SDS011;2593;52.466;13.436;2023-02-03T05:46:46;26.60;;;14.00;;
5149;SDS011;2593;52.466;13.436;2023-02-03T05:49:12;28.77;;;15.23;;
5149;SDS011;2593;52.466;13.436;2023-02-03T05:51:38;31.33;;;15.40;;
5149;SDS011;2593;52.466;13.436;2023-02-03T05:54:05;31.50;;;17.50;;
5149;SDS011;2593;52.466;13.436;2023-02-03T05:56:31;38.70;;;16.60;;
5149;SDS011;2593;52.466;13.436;2023-02-03T05:58:56;38.63;;;17.70;;
5149;SDS011;2593;52.466;13.436;2023-02-03T06:01:22;37.50;;;16.60;;
5149;SDS011;2593;52.466;13.436;2023-02-03T06:03:48;47.93;;;19.50;;
5149;SDS011;2593;52.466;13.436;2023-02-03T06:06:14;37.27;;;18.20;;
5149;SDS011;2593;52.466;13.436;2023-02-03T06:08:39;38.40;;;18.87;;
5149;SDS011;2593;52.466;13.436;2023-02-03T06:11:05;43.03;;;19.30;;
5149;SDS011;2593;52.466;13.436;2023-02-03T06:13:31;39.20;;;20.40;;
5149;SDS011;2593;52.466;13.436;2023-02-03T06:15:56;43.13;;;21.77;;
5149;SDS011;2593;52.466;13.436;2023-02-03T06:18:22;48.80;;;22.87;;
5149;SDS011;2593;52.466;13.436;2023-02-03T06:20:48;46.83;;;20.07;;
5149;SDS011;2593;52.466;13.436;2023-02-03T06:23:14;47.37;;;21.03;;
5149;SDS011;2593;52.466;13.436;2023-02-03T06:25:41;49.10;;;19.47;;
5149;SDS011;2593;52.466;13.436;2023-02-03T06:28:07;47.57;;;21.37;;
5149;SDS011;2593;52.466;13.436;2023-02-03T06:30:33;43.80;;;21.20;;
5149;SDS011;2593;52.466;13.436;2023-02-03T06:32:58;39.00;;;21.37;;
5149;SDS011;2593;52.466;13.436;2023-02-03T06:35:24;37.33;;;19.80;;
5149;SDS011;2593;52.466;13.436;2023-02-03T06:37:50;42.83;;;21.07;;
5149;SDS011;2593;52.466;13.436;2023-02-03T06:40:15;42.90;;;22.90;;
5149;SDS011;2593;52.466;13.436;2023-02-03T06:42:50;42.70;;;20.47;;
5149;SDS011;2593;52.466;13.436;2023-02-03T06:45:16;49.97;;;21.47;;
5149;SDS011;2593;52.466;13.436;2023-02-03T06:47:42;47.13;;;22.80;;
5149;SDS011;2593;52.466;13.436;2023-02-03T06:50:11;38.40;;;20.57;;
5149;SDS011;2593;52.466;13.436;2023-02-03T06:52:37;41.03;;;19.80;;
5149;SDS011;2593;52.466;13.436;2023-02-03T06:55:04;53.70;;;23.57;;
5149;SDS011;2593;52.466;13.436;2023-02-03T06:57:30;35.20;;;20.23;;
5149;SDS011;2593;52.466;13.436;2023-02-03T06:59:56;37.77;;;21.10;;
5149;SDS011;2593;52.466;13.436;2023-02-03T07:02:22;42.93;;;20.20;;
5149;SDS011;2593;52.466;13.436;2023-02-03T07:04:47;32.77;;;19.77;;
5149;SDS011;2593;52.466;13.436;2023-02-03T07:07:13;40.33;;;19.20;;
5149;SDS011;2593;52.466;13.436;2023-02-03T07:09:39;42.90;;;20.50;;
5149;SDS011;2593;52.466;13.436;2023-02-03T07:12:05;30.80;;;18.67;;
5149;SDS011;2593;52.466;13.436;2023-02-03T07:14:32;46.70;;;20.87;;
5149;SDS011;2593;52.466;13.436;2023-02-03T07:17:00;36.53;;;19.97;;
5149;SDS011;2593;52.466;13.436;2023-02-03T07:19:26;33.30;;;19.43;;
5149;SDS011;2593;52.466;13.436;2023-02-03T07:21:52;35.87;;;19.70;;
5149;SDS011;2593;52.466;13.436;2023-02-03T07:24:17;31.60;;;18.87;;
5149;SDS011;2593;52.466;13.436;2023-02-03T07:26:43;36.30;;;19.80;;
5149;SDS011;2593;52.466;13.436;2023-02-03T07:29:08;33.53;;;17.27;;
5149;SDS011;2593;52.466;13.436;2023-02-03T07:31:34;33.40;;;18.03;;
5149;SDS011;2593;52.466;13.436;2023-02-03T07:34:00;53.83;;;19.97;;
5149;SDS011;2593;52.466;13.436;2023-02-03T07:36:26;31.53;;;17.53;;
5149;SDS011;2593;52.466;13.436;2023-02-03T07:38:53;30.63;;;18.50;;
5149;SDS011;2593;52.466;13.436;2023-02-03T07:41:18;33.53;;;18.67;;
5149;SDS011;2593;52.466;13.436;2023-02-03T07:43:44;31.30;;;17.83;;
5149;SDS011;2593;52.466;13.436;2023-02-03T07:46:10;33.37;;;16.63;;
5149;SDS011;2593;52.466;13.436;2023-02-03T07:48:36;32.40;;;17.60;;
5149;SDS011;2593;52.466;13.436;2023-02-03T07:51:02;29.27;;;15.60;;
5149;SDS011;2593;52.466;13.436;2023-02-03T07:53:27;24.43;;;14.90;;
5149;SDS011;2593;52.466;13.436;2023-02-03T07:55:53;26.40;;;15.10;;
5149;SDS011;2593;52.466;13.436;2023-02-03T07:58:19;31.00;;;17.07;;
5149;SDS011;2593;52.466;13.436;2023-02-03T08:00:45;22.40;;;14.90;;
5149;SDS011;2593;52.466;13.436;2023-02-03T08:03:10;26.60;;;14.20;;
5149;SDS011;2593;52.466;13.436;2023-02-03T08:05:36;18.97;;;12.77;;
5149;SDS011;2593;52.466;13.436;2023-02-03T08:08:01;25.40;;;13.60;;
5149;SDS011;2593;52.466;13.436;2023-02-03T08:10:27;25.80;;;13.33;;
5149;SDS011;2593;52.466;13.436;2023-02-03T08:12:53;23.83;;;11.73;;
5149;SDS011;2593;52.466;13.436;2023-02-03T08:15:19;19.47;;;12.10;;
5149;SDS011;2593;52.466;13.436;2023-02-03T08:17:46;20.27;;;12.17;;
5149;SDS011;2593;52.466;13.436;2023-02-03T08:20:13;22.00;;;12.97;;
5149;SDS011;2593;52.466;13.436;2023-02-03T08:22:39;20.00;;;10.67;;
5149;SDS011;2593;52.466;13.436;2023-02-03T08:25:05;16.07;;;10.80;;
5149;SDS011;2593;52.466;13.436;2023-02-03T08:27:31;17.10;;;11.30;;
5149;SDS011;2593;52.466;13.436;2023-02-03T08:29:57;21.83;;;11.57;;
5149;SDS011;2593;52.466;13.436;2023-02-03T08:32:23;16.30;;;10.33;;
5149;SDS011;2593;52.466;13.436;2023-02-03T08:34:49;13.00;;;9.50;;
5149;SDS011;2593;52.466;13.436;2023-02-03T08:37:15;13.07;;;9.53;;
5149;SDS011;2593;52.466;13.436;2023-02-03T08:39:42;13.23;;;9.27;;
5149;SDS011;2593;52.466;13.436;2023-02-03T08:42:08;15.73;;;9.20;;
5149;SDS011;2593;52.466;13.436;2023-02-03T08:44:35;10.70;;;8.77;;
5149;SDS011;2593;52.466;13.436;2023-02-03T08:47:02;9.97;;;8.50;;
5149;SDS011;2593;52.466;13.436;2023-02-03T08:49:29;11.77;;;9.10;;
5149;SDS011;2593;52.466;13.436;2023-02-03T08:51:55;13.40;;;9.03;;
5149;SDS011;2593;52.466;13.436;2023-02-03T08:54:22;10.43;;;8.10;;
5149;SDS011;2593;52.466;13.436;2023-02-03T08:56:48;10.03;;;8.27;;
5149;SDS011;2593;52.466;13.436;2023-02-03T08:59:14;13.33;;;8.43;;
5149;SDS011;2593;52.466;13.436;2023-02-03T09:01:41;9.03;;;7.93;;
5149;SDS011;2593;52.466;13.436;2023-02-03T09:04:12;9.10;;;7.40;;
5149;SDS011;2593;52.466;13.436;2023-02-03T09:06:39;11.97;;;8.10;;
5149;SDS011;2593;52.466;13.436;2023-02-03T09:09:05;9.07;;;6.67;;
5149;SDS011;2593;52.466;13.436;2023-02-03T09:11:30;8.00;;;7.30;;
5149;SDS011;2593;52.466;13.436;2023-02-03T09:13:56;7.83;;;6.67;;
5149;SDS011;2593;52.466;13.436;2023-02-03T09:16:22;8.60;;;5.37;;
5149;SDS011;2593;52.466;13.436;2023-02-03T09:18:48;12.13;;;6.77;;
5149;SDS011;2593;52.466;13.436;2023-02-03T09:21:15;9.23;;;6.10;;
5149;SDS011;2593;52.466;13.436;2023-02-03T09:23:41;11.13;;;6.53;;
5149;SDS011;2593;52.466;13.436;2023-02-03T09:26:11;10.80;;;5.67;;
5149;SDS011;2593;52.466;13.436;2023-02-03T09:28:38;7.80;;;6.43;;
5149;SDS011;2593;52.466;13.436;2023-02-03T09:31:05;7.37;;;6.37;;
5149;SDS011;2593;52.466;13.436;2023-02-03T09:33:36;14.67;;;6.83;;
5149;SDS011;2593;52.466;13.436;2023-02-03T09:36:03;6.60;;;5.83;;
5149;SDS011;2593;52.466;13.436;2023-02-03T09:38:30;6.07;;;5.50;;
5149;SDS011;2593;52.466;13.436;2023-02-03T09:40:58;5.43;;;4.90;;
5149;SDS011;2593;52.466;13.436;2023-02-03T09:43:59;9.70;;;6.93;;
5149;SDS011;2593;52.466;13.436;2023-02-03T09:46:55;7.33;;;5.57;;
5149;SDS011;2593;52.466;13.436;2023-02-03T09:52:14;8.03;;;5.77;;
5149;SDS011;2593;52.466;13.436;2023-02-03T09:54:46;4.97;;;4.57;;
5149;SDS011;2593;52.466;13.436;2023-02-03T09:57:31;6.33;;;5.00;;
5149;SDS011;2593;52.466;13.436;2023-02-03T10:00:12;9.63;;;5.17;;
5149;SDS011;2593;52.466;13.436;2023-02-03T10:02:57;4.60;;;4.27;;
5149;SDS011;2593;52.466;13.436;2023-02-03T10:08:02;6.30;;;4.83;;
5149;SDS011;2593;52.466;13.436;2023-02-03T10:10:39;6.20;;;4.53;;
5149;SDS011;2593;52.466;13.436;2023-02-03T10:18:05;5.30;;;4.80;;
5149;SDS011;2593;52.466;13.436;2023-02-03T10:20:48;4.90;;;4.20;;
5149;SDS011;2593;52.466;13.436;2023-02-03T10:23:27;9.60;;;4.30;;
5149;SDS011;2593;52.466;13.436;2023-02-03T10:25:55;8.73;;;4.57;;
5149;SDS011;2593;52.466;13.436;2023-02-03T10:28:31;6.67;;;4.37;;
5149;SDS011;2593;52.466;13.436;2023-02-03T10:31:16;3.70;;;3.40;;
5149;SDS011;2593;52.466;13.436;2023-02-03T10:33:48;4.17;;;3.77;;
5149;SDS011;2593;52.466;13.436;2023-02-03T10:42:03;6.17;;;3.73;;
5149;SDS011;2593;52.466;13.436;2023-02-03T10:44:34;12.30;;;3.40;;
5149;SDS011;2593;52.466;13.436;2023-02-03T10:47:12;5.83;;;3.93;;
5149;SDS011;2593;52.466;13.436;2023-02-03T10:49:42;12.73;;;3.80;;
5149;SDS011;2593;52.466;13.436;2023-02-03T10:52:09;9.63;;;5.70;;
5149;SDS011;2593;52.466;13.436;2023-02-03T10:54:59;4.90;;;2.70;;
5149;SDS011;2593;52.466;13.436;2023-02-03T10:57:50;14.03;;;1.47;;
5149;SDS011;2593;52.466;13.436;2023-02-03T11:02:58;9.87;;;1.63;;
5149;SDS011;2593;52.466;13.436;2023-02-03T11:05:25;7.17;;;1.60;;
5149;SDS011;2593;52.466;13.436;2023-02-03T11:07:51;6.90;;;1.47;;
5149;SDS011;2593;52.466;13.436;2023-02-03T11:10:38;6.73;;;1.77;;
5149;SDS011;2593;52.466;13.436;2023-02-03T11:21:08;9.43;;;1.43;;
5149;SDS011;2593;52.466;13.436;2023-02-03T11:23:55;12.33;;;2.90;;
5149;SDS011;2593;52.466;13.436;2023-02-03T11:26:39;15.97;;;3.40;;
5149;SDS011;2593;52.466;13.436;2023-02-03T11:29:18;13.83;;;2.63;;
5149;SDS011;2593;52.466;13.436;2023-02-03T11:31:52;20.10;;;3.10;;
5149;SDS011;2593;52.466;13.436;2023-02-03T11:34:20;11.00;;;2.50;;
5149;SDS011;2593;52.466;13.436;2023-02-03T11:39:54;12.00;;;2.70;;
5149;SDS011;2593;52.466;13.436;2023-02-03T11:42:42;13.87;;;2.93;;
5149;SDS011;2593;52.466;13.436;2023-02-03T11:45:27;22.87;;;3.17;;
5149;SDS011;2593;52.466;13.436;2023-02-03T11:56:54;27.97;;;5.53;;
5149;SDS011;2593;52.466;13.436;2023-02-03T12:05:00;22.27;;;5.23;;
5149;SDS011;2593;52.466;13.436;2023-02-03T12:29:49;37.50;;;4.77;;
5149;SDS011;2593;52.466;13.436;2023-02-03T12:32:37;30.07;;;6.10;;
5149;SDS011;2593;52.466;13.436;2023-02-03T12:35:44;43.77;;;6.00;;
5149;SDS011;2593;52.466;13.436;2023-02-03T12:38:33;25.57;;;4.60;;
5149;SDS011;2593;52.466;13.436;2023-02-03T12:41:30;30.73;;;4.87;;
5149;SDS011;2593;52.466;13.436;2023-02-03T12:44:00;56.53;;;6.70;;
5149;SDS011;2593;52.466;13.436;2023-02-03T12:49:12;26.40;;;4.73;;
5149;SDS011;2593;52.466;13.436;2023-02-03T12:51:44;38.67;;;5.37;;
5149;SDS011;2593;52.466;13.436;2023-02-03T12:56:57;34.53;;;4.93;;
5149;SDS011;2593;52.466;13.436;2023-02-03T12:59:34;31.53;;;6.00;;
5149;SDS011;2593;52.466;13.436;2023-02-03T13:02:10;30.33;;;6.07;;
5149;SDS011;2593;52.466;13.436;2023-02-03T13:04:47;43.83;;;6.27;;
5149;SDS011;2593;52.466;13.436;2023-02-03T13:07:30;25.50;;;4.63;;
5149;SDS011;2593;52.466;13.436;2023-02-03T13:10:15;13.13;;;2.60;;
5149;SDS011;2593;52.466;13.436;2023-02-03T13:13:13;11.13;;;2.03;;
5149;SDS011;2593;52.466;13.436;2023-02-03T13:15:45;14.60;;;3.00;;
5149;SDS011;2593;52.466;13.436;2023-02-03T13:18:24;13.27;;;2.20;;
5149;SDS011;2593;52.466;13.436;2023-02-03T13:20:55;17.93;;;2.93;;
5149;SDS011;2593;52.466;13.436;2023-02-03T13:23:21;16.60;;;2.47;;
5149;SDS011;2593;52.466;13.436;2023-02-03T13:25:54;29.93;;;3.33;;
5149;SDS011;2593;52.466;13.436;2023-02-03T13:28:48;24.20;;;3.70;;
5149;SDS011;2593;52.466;13.436;2023-02-03T13:31:40;26.20;;;3.20;;
5149;SDS011;2593;52.466;13.436;2023-02-03T13:42:33;17.83;;;1.93;;
5149;SDS011;2593;52.466;13.436;2023-02-03T13:45:10;26.83;;;3.00;;
5149;SDS011;2593;52.466;13.436;2023-02-03T13:47:50;30.57;;;3.73;;
5149;SDS011;2593;52.466;13.436;2023-02-03T13:50:20;36.30;;;3.50;;
5149;SDS011;2593;52.466;13.436;2023-02-03T13:52:56;11.20;;;3.60;;
5149;SDS011;2593;52.466;13.436;2023-02-03T13:58:27;26.57;;;3.70;;
5149;SDS011;2593;52.466;13.436;2023-02-03T14:01:03;23.80;;;3.60;;
5149;SDS011;2593;52.466;13.436;2023-02-03T14:05:55;29.33;;;3.17;;
5149;SDS011;2593;52.466;13.436;2023-02-03T14:16:34;24.00;;;5.97;;
5149;SDS011;2593;52.466;13.436;2023-02-03T14:19:04;25.13;;;5.80;;
5149;SDS011;2593;52.466;13.436;2023-02-03T14:21:37;30.73;;;4.80;;
5149;SDS011;2593;52.466;13.436;2023-02-03T14:24:12;30.43;;;7.00;;
5149;SDS011;2593;52.466;13.436;2023-02-03T14:26:40;34.50;;;5.97;;
5149;SDS011;2593;52.466;13.436;2023-02-03T14:29:10;60.60;;;8.87;;
5149;SDS011;2593;52.466;13.436;2023-02-03T14:31:53;32.33;;;7.43;;
5149;SDS011;2593;52.466;13.436;2023-02-03T14:51:01;24.57;;;6.17;;
5149;SDS011;2593;52.466;13.436;2023-02-03T14:53:46;42.30;;;6.83;;
5149;SDS011;2593;52.466;13.436;2023-02-03T15:02:07;38.50;;;5.73;;
5149;SDS011;2593;52.466;13.436;2023-02-03T15:04:36;32.23;;;5.37;;
5149;SDS011;2593;52.466;13.436;2023-02-03T15:07:01;38.87;;;6.40;;
5149;SDS011;2593;52.466;13.436;2023-02-03T15:09:45;32.60;;;5.23;;
5149;SDS011;2593;52.466;13.436;2023-02-03T15:12:19;35.43;;;4.53;;
5149;SDS011;2593;52.466;13.436;2023-02-03T15:14:48;35.77;;;6.20;;
5149;SDS011;2593;52.466;13.436;2023-02-03T15:17:24;35.80;;;6.80;;
5149;SDS011;2593;52.466;13.436;2023-02-03T15:19:52;34.37;;;6.93;;
5149;SDS011;2593;52.466;13.436;2023-02-03T15:24:51;34.17;;;6.50;;
5149;SDS011;2593;52.466;13.436;2023-02-03T15:27:24;30.60;;;5.00;;
5149;SDS011;2593;52.466;13.436;2023-02-03T15:29:51;36.47;;;5.97;;
5149;SDS011;2593;52.466;13.436;2023-02-03T15:34:50;28.00;;;4.20;;
5149;SDS011;2593;52.466;13.436;2023-02-03T15:40:34;34.33;;;6.47;;
5149;SDS011;2593;52.466;13.436;2023-02-03T15:47:56;33.10;;;6.27;;
5149;SDS011;2593;52.466;13.436;2023-02-03T15:50:38;34.30;;;4.77;;
5149;SDS011;2593;52.466;13.436;2023-02-03T15:53:13;25.13;;;4.73;;
5149;SDS011;2593;52.466;13.436;2023-02-03T15:55:46;29.33;;;5.00;;
5149;SDS011;2593;52.466;13.436;2023-02-03T16:00:43;18.73;;;4.30;;
5149;SDS011;2593;52.466;13.436;2023-02-03T16:03:15;22.70;;;4.23;;
5149;SDS011;2593;52.466;13.436;2023-02-03T16:05:45;31.67;;;5.50;;
5149;SDS011;2593;52.466;13.436;2023-02-03T16:11:18;41.80;;;6.03;;
5149;SDS011;2593;52.466;13.436;2023-02-03T16:13:48;30.90;;;5.40;;
5149;SDS011;2593;52.466;13.436;2023-02-03T16:16:15;30.97;;;6.93;;
5149;SDS011;2593;52.466;13.436;2023-02-03T16:18:49;31.83;;;6.10;;
5149;SDS011;2593;52.466;13.436;2023-02-03T16:21:36;20.20;;;4.57;;
5149;SDS011;2593;52.466;13.436;2023-02-03T16:35:53;25.50;;;5.23;;
5149;SDS011;2593;52.466;13.436;2023-02-03T16:38:43;34.70;;;4.90;;
5149;SDS011;2593;52.466;13.436;2023-02-03T16:41:30;31.30;;;6.13;;
5149;SDS011;2593;52.466;13.436;2023-02-03T16:44:15;45.47;;;10.57;;
5149;SDS011;2593;52.466;13.436;2023-02-03T16:47:00;42.07;;;7.07;;
5149;SDS011;2593;52.466;13.436;2023-02-03T16:49:45;35.97;;;6.67;;
5149;SDS011;2593;52.466;13.436;2023-02-03T16:52:29;36.47;;;4.80;;
5149;SDS011;2593;52.466;13.436;2023-02-03T16:54:56;34.03;;;4.70;;
5149;SDS011;2593;52.466;13.436;2023-02-03T16:57:23;33.97;;;6.23;;
5149;SDS011;2593;52.466;13.436;2023-02-03T16:59:49;43.60;;;7.10;;
5149;SDS011;2593;52.466;13.436;2023-02-03T17:02:14;31.83;;;5.70;;
5149;SDS011;2593;52.466;13.436;2023-02-03T17:04:40;35.13;;;5.97;;
5149;SDS011;2593;52.466;13.436;2023-02-03T17:07:06;37.97;;;6.80;;
5149;SDS011;2593;52.466;13.436;2023-02-03T17:09:32;49.80;;;6.17;;
5149;SDS011;2593;52.466;13.436;2023-02-03T17:11:59;42.50;;;7.13;;
5149;SDS011;2593;52.466;13.436;2023-02-03T17:14:28;33.17;;;7.83;;
5149;SDS011;2593;52.466;13.436;2023-02-03T17:16:55;41.57;;;7.77;;
5149;SDS011;2593;52.466;13.436;2023-02-03T17:19:20;24.60;;;5.63;;
5149;SDS011;2593;52.466;13.436;2023-02-03T17:21:46;51.73;;;8.47;;
5149;SDS011;2593;52.466;13.436;2023-02-03T17:24:12;33.57;;;7.83;;
5149;SDS011;2593;52.466;13.436;2023-02-03T17:26:38;47.73;;;9.40;;
5149;SDS011;2593;52.466;13.436;2023-02-03T17:29:04;38.50;;;6.23;;
5149;SDS011;2593;52.466;13.436;2023-02-03T17:31:30;40.30;;;5.77;;
5149;SDS011;2593;52.466;13.436;2023-02-03T17:33:56;30.93;;;5.33;;
5149;SDS011;2593;52.466;13.436;2023-02-03T17:36:23;24.57;;;4.83;;
5149;SDS011;2593;52.466;13.436;2023-02-03T17:38:53;29.40;;;5.73;;
5149;SDS011;2593;52.466;13.436;2023-02-03T17:41:21;28.87;;;4.80;;
5149;SDS011;2593;52.466;13.436;2023-02-03T17:43:48;31.00;;;7.50;;
5149;SDS011;2593;52.466;13.436;2023-02-03T17:46:15;44.83;;;8.23;;
5149;SDS011;2593;52.466;13.436;2023-02-03T17:48:43;28.63;;;8.10;;
5149;SDS011;2593;52.466;13.436;2023-02-03T17:53:37;27.77;;;4.90;;
5149;SDS011;2593;52.466;13.436;2023-02-03T17:56:07;35.43;;;5.63;;
5149;SDS011;2593;52.466;13.436;2023-02-03T17:58:36;26.47;;;5.10;;
5149;SDS011;2593;52.466;13.436;2023-02-03T18:01:05;31.43;;;6.60;;